Time;durP1;ratioP1;P1;durP2;ratioP2;P2;SDS_P1;SDS_P2;PMS_P1;PMS_P2;Temp;Humidity;BMP_temperature;BMP_pressure;BME280_temperature;BME280_humidity;BME280_pressure;Samples;Min_cycle;Max_cycle;Signal;HPM_P1;HPM_P2
2022/07/22 00:03:24;;;;;;;3.53;1.92;;;;;;;26.47;30.54;99871.19;7765862;32;36731;-73
2022/07/22 00:07:40;;;;;;;4.55;2.47;;;;;;;26.55;31.94;99868.12;7792247;32;38888;-73
2022/07/22 00:11:56;;;;;;;5.03;2.20;;;;;;;26.30;32.28;99867.78;7792339;32;40018;-72
2022/07/22 00:16:13;;;;;;;4.40;2.22;;;;;;;26.57;31.45;99871.34;7788193;32;37943;-73
2022/07/22 00:20:29;;;;;;;5.90;2.40;;;;;;;26.63;30.85;99871.03;7792364;32;36422;-72
2022/07/22 00:24:45;;;;;;;4.22;1.98;;;;;;;26.81;30.05;99863.69;7778882;32;39179;-72
2022/07/22 00:29:01;;;;;;;3.75;2.05;;;;;;;26.48;31.16;99868.03;7764879;32;40832;-73
2022/07/22 00:33:18;;;;;;;4.57;2.30;;;;;;;26.66;30.67;99867.50;7768149;32;38729;-73
2022/07/22 00:37:34;;;;;;;6.47;2.40;;;;;;;26.57;30.75;99862.94;7792060;32;36614;-73
2022/07/22 00:41:50;;;;;;;2.80;2.05;;;;;;;26.78;30.29;99861.66;7791927;32;39946;-74
2022/07/22 00:46:07;;;;;;;3.58;1.83;;;;;;;26.91;29.97;99854.63;7756408;32;40765;-74
2022/07/22 00:50:23;;;;;;;5.40;2.30;;;;;;;26.83;30.07;99864.13;7764619;32;37964;-77
2022/07/22 00:54:40;;;;;;;4.97;2.35;;;;;;;25.84;33.15;99868.62;7771120;32;36880;-76
2022/07/22 00:58:58;;;;;;;5.30;2.05;;;;;;;26.21;32.68;99865.25;7764425;32;39220;-77
2022/07/22 01:03:16;;;;;;;4.40;2.28;;;;;;;26.18;32.20;99865.19;7780857;32;39903;-75
2022/07/22 01:07:32;;;;;;;8.00;2.67;;;;;;;26.11;32.08;99865.06;7790998;32;38571;-76
2022/07/22 01:11:48;;;;;;;3.33;1.90;;;;;;;26.16;31.85;99861.97;7773101;32;37565;-75
2022/07/22 01:16:06;;;;;;;5.75;2.33;;;;;;;26.24;31.37;99861.69;7763996;32;40156;-76
2022/07/22 01:20:22;;;;;;;6.68;2.58;;;;;;;26.21;31.52;99864.44;7786018;32;39624;-72
2022/07/22 01:24:39;;;;;;;4.95;2.58;;;;;;;26.43;31.03;99865.56;7790782;32;37918;-72
2022/07/22 01:28:55;;;;;;;5.87;2.25;;;;;;;26.13;31.28;99880.28;7768793;32;36892;-73
2022/07/22 01:33:12;;;;;;;7.62;2.42;;;;;;;25.80;32.48;99887.31;7767041;32;39286;-73
2022/07/22 01:37:28;;;;;;;6.22;2.58;;;;;;;25.63;32.79;99879.41;7767870;32;39628;-72
2022/07/22 01:41:44;;;;;;;5.03;2.37;;;;;;;25.75;32.23;99887.63;7767036;32;38057;-73
2022/07/22 01:46:01;;;;;;;5.43;2.35;;;;;;;25.56;32.79;99894.06;7777258;32;37714;-73
2022/07/22 01:50:17;;;;;;;6.75;2.40;;;;;;;25.53;33.06;99888.44;7772002;32;40180;-73
2022/07/22 01:54:33;;;;;;;7.93;2.20;;;;;;;25.56;33.05;99896.03;7753599;32;40824;-72
2022/07/22 01:58:49;;;;;;;5.15;2.72;;;;;;;25.49;32.90;99897.53;7779865;32;37850;-73
2022/07/22 02:03:06;;;;;;;3.15;2.15;;;;;;;25.43;32.84;99887.84;7792105;32;36904;-72
2022/07/22 02:07:22;;;;;;;5.07;2.10;;;;;;;25.32;33.29;99889.63;7783007;32;39209;-73
2022/07/22 02:11:38;;;;;;;8.57;2.65;;;;;;;25.55;32.36;99888.84;7793810;32;39622;-72
2022/07/22 02:15:54;;;;;;;7.90;2.42;;;;;;;25.35;32.98;99882.50;7785042;32;37586;-72
2022/07/22 02:20:11;;;;;;;3.95;2.05;;;;;;;25.46;32.52;99881.53;7784409;32;37060;-72
2022/07/22 02:24:27;;;;;;;8.40;2.60;;;;;;;25.35;33.08;99877.72;7782740;32;39416;-72
2022/07/22 02:28:43;;;;;;;8.50;2.17;;;;;;;25.40;32.88;99877.41;7793514;32;40084;-72
2022/07/22 02:32:59;;;;;;;10.98;2.72;;;;;;;25.38;33.27;99885.34;7775097;32;37928;-73
2022/07/22 02:37:15;;;;;;;4.20;2.80;;;;;;;25.17;34.09;99876.56;7766186;32;37703;-72
2022/07/22 02:41:32;;;;;;;5.15;2.45;;;;;;;25.39;33.62;99880.56;7775210;32;39244;-73
2022/07/22 02:45:48;;;;;;;5.18;2.55;;;;;;;25.26;34.11;99880.75;7793450;32;39627;-72
2022/07/22 02:50:04;;;;;;;6.32;2.60;;;;;;;25.23;34.06;99877.84;7793018;32;37719;-72
2022/07/22 02:54:21;;;;;;;12.32;3.12;;;;;;;25.25;34.51;99884.72;7766057;32;37030;-73
2022/07/22 02:58:37;;;;;;;6.78;2.65;;;;;;;25.32;34.42;99886.03;7766035;32;40101;-73
2022/07/22 03:02:53;;;;;;;6.25;2.70;;;;;;;25.33;34.29;99882.06;7783283;32;39974;-72
2022/07/22 03:07:09;;;;;;;8.90;3.05;;;;;;;25.25;34.76;99875.50;7792716;32;39457;-72
2022/07/22 03:11:25;;;;;;;7.95;3.28;;;;;;;25.36;35.32;99882.13;7786683;32;36930;-72
2022/07/22 03:15:41;;;;;;;6.70;3.20;;;;;;;25.31;35.71;99876.84;7789000;32;39869;-73
2022/07/22 03:19:57;;;;;;;6.37;3.72;;;;;;;25.46;35.55;99875.94;7761730;32;40069;-72
2022/07/22 03:24:13;;;;;;;5.43;2.72;;;;;;;25.22;36.32;99881.84;7785033;32;38771;-72
2022/07/22 03:28:29;;;;;;;6.65;2.65;;;;;;;24.74;36.19;99891.22;7785708;32;37016;-72
2022/07/22 03:32:46;;;;;;;6.32;2.60;;;;;;;24.42;37.79;99893.25;7765674;32;40657;-72
2022/07/22 03:37:06;;;;;;;5.47;2.85;;;;;;;24.51;38.35;99891.09;7765548;32;40774;-72
2022/07/22 03:41:22;;;;;;;6.12;2.60;;;;;;;24.33;38.52;99898.22;7787179;32;37739;-72
2022/07/22 03:45:39;;;;;;;6.68;2.90;;;;;;;24.48;38.28;99894.59;7792706;32;36982;-72
2022/07/22 03:49:56;;;;;;;4.50;2.58;;;;;;;24.41;38.49;99888.88;7774278;32;39386;-72
2022/07/22 03:54:12;;;;;;;4.05;2.47;;;;;;;24.47;38.07;99892.97;7765358;32;40028;-72
2022/07/22 03:58:29;;;;;;;4.15;2.40;;;;;;;24.47;38.68;99903.31;7783616;32;38011;-72
2022/07/22 04:02:45;;;;;;;5.20;2.33;;;;;;;24.36;40.95;99898.31;7792478;32;37058;-72
2022/07/22 04:07:01;;;;;;;6.90;2.60;;;;;;;24.13;41.80;99900.16;7783121;32;39160;-72
2022/07/22 04:11:17;;;;;;;6.30;2.60;;;;;;;24.24;42.05;99901.22;7765075;32;40746;-73
2022/07/22 04:15:33;;;;;;;4.05;2.58;;;;;;;24.37;41.43;99899.94;7765023;32;38591;-72
2022/07/22 04:19:49;;;;;;;5.28;2.45;;;;;;;24.47;40.95;99901.34;7791703;32;37616;-72
2022/07/22 04:24:06;;;;;;;4.75;2.65;;;;;;;24.24;42.67;99906.78;7790970;32;39911;-72
2022/07/22 04:28:22;;;;;;;7.62;2.50;;;;;;;24.52;42.13;99903.03;7760605;32;39628;-72
2022/07/22 04:32:38;;;;;;;3.58;2.28;;;;;;;24.31;42.74;99906.94;7764828;32;38443;-72
2022/07/22 04:36:54;;;;;;;6.80;2.58;;;;;;;24.33;43.98;99909.37;7772252;32;36794;-72
2022/07/22 04:41:10;;;;;;;5.20;2.42;;;;;;;24.33;44.50;99904.59;7784598;32;39783;-72
2022/07/22 04:45:26;;;;;;;7.50;3.10;;;;;;;24.16;45.58;99910.56;7764627;32;39959;-72
2022/07/22 04:49:43;;;;;;;10.50;2.45;;;;;;;24.06;46.16;99922.22;7789780;32;37952;-72
2022/07/22 04:53:59;;;;;;;11.02;3.47;;;;;;;24.31;45.89;99920.88;7791629;32;37769;-72
2022/07/22 04:58:16;;;;;;;6.03;2.97;;;;;;;24.37;45.58;99921.44;7787318;32;39829;-73
2022/07/22 05:02:32;;;;;;;8.23;2.92;;;;;;;24.37;44.99;99922.22;7763438;32;39848;-72
2022/07/22 05:06:48;;;;;;;13.57;3.50;;;;;;;24.66;44.31;99928.47;7763366;32;38498;-73
2022/07/22 05:11:04;;;;;;;7.87;2.83;;;;;;;24.98;42.72;99933.94;7763777;32;37109;-74
2022/07/22 05:15:21;;;;;;;7.45;3.00;;;;;;;25.53;41.62;99935.88;7749930;32;39276;-74
2022/07/22 05:19:39;;;;;;;14.25;3.03;;;;;;;25.47;41.58;99933.37;7763802;32;40029;-73
2022/07/22 05:23:55;;;;;;;7.00;2.70;;;;;;;25.36;41.32;99945.50;7763668;32;40204;-74
2022/07/22 05:28:11;;;;;;;8.48;3.00;;;;;;;25.74;40.93;99941.84;7763225;32;36913;-77
2022/07/22 05:32:27;;;;;;;6.90;3.10;;;;;;;26.04;41.00;99935.59;7763568;32;40014;-80
2022/07/22 05:36:43;;;;;;;8.85;3.12;;;;;;;26.18;40.07;99944.25;7763227;32;39863;-77
2022/07/22 05:40:59;;;;;;;5.18;3.00;;;;;;;26.52;39.96;99940.75;7762999;32;39496;-77
2022/07/22 05:45:15;;;;;;;8.10;3.40;;;;;;;26.74;40.27;99939.91;7762748;32;37680;-78
2022/07/22 05:49:31;;;;;;;11.45;3.72;;;;;;;27.01;39.90;99939.06;7762795;32;39300;-75
2022/07/22 05:53:48;;;;;;;11.77;4.60;;;;;;;27.40;38.63;99935.97;7762919;32;40699;-80
2022/07/22 05:58:04;;;;;;;10.35;4.43;;;;;;;27.42;38.87;99939.19;7762466;32;37963;-79
2022/07/22 06:02:20;;;;;;;9.50;4.82;;;;;;;27.66;38.27;99940.66;7762785;32;37021;-78
2022/07/22 06:06:36;;;;;;;11.85;4.90;;;;;;;27.72;38.45;99939.91;7762170;32;39343;-78
2022/07/22 06:10:53;;;;;;;7.53;4.78;;;;;;;27.81;38.61;99952.81;7761970;32;40220;-78
2022/07/22 06:15:09;;;;;;;10.40;5.90;;;;;;;27.97;38.95;99944.16;7765012;32;38684;-78
2022/07/22 06:19:25;;;;;;;8.07;4.82;;;;;;;27.92;38.88;99945.31;7766483;32;37696;-78
2022/07/22 06:23:41;;;;;;;12.90;4.85;;;;;;;27.87;38.72;99951.25;7766370;32;39211;-78
2022/07/22 06:27:57;;;;;;;9.48;5.15;;;;;;;27.97;38.60;99953.38;7766076;32;40074;-77
2022/07/22 06:32:13;;;;;;;9.10;4.95;;;;;;;27.85;39.09;99948.81;7766248;32;37602;-77
2022/07/22 06:36:31;;;;;;;10.68;5.62;;;;;;;27.90;38.88;99951.28;7766415;32;37076;-76
2022/07/22 06:40:47;;;;;;;9.93;5.22;;;;;;;28.27;38.85;99953.25;7766239;32;39381;-76
2022/07/22 06:45:04;;;;;;;13.32;5.18;;;;;;;28.57;37.77;99945.88;7766143;32;40845;-76
2022/07/22 06:49:25;;;;;;;13.82;5.32;;;;;;;28.54;38.17;99938.19;7766108;32;38203;-76
2022/07/22 06:53:42;;;;;;;11.73;5.93;;;;;;;28.84;37.44;99935.22;7766145;32;37715;-76
2022/07/22 06:58:03;;;;;;;15.75;5.57;;;;;;;28.41;37.96;99941.31;7766129;32;39345;-76
2022/07/22 07:02:19;;;;;;;8.38;5.25;;;;;;;28.84;37.16;99947.22;7765708;32;39954;-75
2022/07/22 07:06:36;;;;;;;10.50;4.90;;;;;;;28.70;38.54;99940.72;7765549;32;38718;-75
2022/07/22 07:10:52;;;;;;;11.70;5.50;;;;;;;28.77;38.91;99935.97;7765621;32;37726;-75
2022/07/22 07:15:08;;;;;;;15.57;5.60;;;;;;;29.06;38.02;99933.28;7765799;32;40008;-76
2022/07/22 07:19:42;;;;;;;12.60;5.50;;;;;;;29.27;38.21;99934.59;7765596;32;40959;-75
2022/07/22 07:23:58;;;;;;;9.82;5.18;;;;;;;29.55;37.23;99934.69;7765569;32;38007;-76
2022/07/22 07:28:14;;;;;;;13.30;5.35;;;;;;;29.45;37.79;99935.47;7765734;32;38220;-74
2022/07/22 07:32:30;;;;;;;12.35;5.80;;;;;;;30.07;37.09;99933.59;7765555;32;38918;-79
2022/07/22 07:36:47;;;;;;;11.48;5.60;;;;;;;30.05;36.67;99934.00;7765484;32;39989;-78
2022/07/22 07:41:03;;;;;;;9.63;5.65;;;;;;;30.18;35.85;99934.38;7765271;32;37918;-78
2022/07/22 07:45:19;;;;;;;16.05;5.20;;;;;;;29.73;36.49;99929.09;7765455;32;36968;-76
2022/07/22 07:49:36;;;;;;;15.48;5.20;;;;;;;29.99;36.32;99924.34;7765333;32;39748;-75
2022/07/22 07:53:52;;;;;;;16.85;6.32;;;;;;;29.83;36.17;99926.75;7765158;32;40557;-76
2022/07/22 07:58:10;;;;;;;13.20;5.00;;;;;;;29.94;35.96;99925.56;7765096;32;38037;-76
2022/07/22 08:02:26;;;;;;;12.73;5.82;;;;;;;30.34;34.97;99917.13;7765154;32;37205;-76
2022/07/22 08:06:42;;;;;;;13.38;6.32;;;;;;;30.48;35.26;99928.38;7765054;32;39366;-76
2022/07/22 08:10:59;;;;;;;10.70;5.35;;;;;;;30.64;34.64;99916.66;7764977;32;40095;-76
2022/07/22 08:15:17;;;;;;;10.35;5.57;;;;;;;30.84;34.18;99917.03;7764764;32;38526;-76
2022/07/22 08:19:33;;;;;;;13.80;5.78;;;;;;;30.33;34.74;99921.12;7763260;32;37752;-76
2022/07/22 08:23:49;;;;;;;16.33;6.43;;;;;;;30.37;34.19;99918.34;7761408;32;39280;-75
2022/07/22 08:28:05;;;;;;;12.32;5.82;;;;;;;30.33;34.78;99924.72;7761311;32;40782;-76
2022/07/22 08:32:22;;;;;;;15.35;5.43;;;;;;;30.86;34.04;99914.59;7761190;32;37971;-76
2022/07/22 08:36:38;;;;;;;10.05;5.37;;;;;;;31.00;33.04;99908.13;7762751;32;36741;-76
2022/07/22 08:40:55;;;;;;;10.93;5.87;;;;;;;30.77;33.47;99913.41;7764809;32;38956;-76
2022/07/22 08:45:21;;;;;;;10.27;5.53;;;;;;;30.71;33.85;99913.03;7764752;32;40615;-76
2022/07/22 08:49:40;;;;;;;8.27;5.10;;;;;;;30.54;33.89;99911.88;7764475;32;38657;-76
2022/07/22 08:53:57;;;;;;;18.20;6.05;;;;;;;30.48;33.58;99916.31;7751100;32;37785;-76
2022/07/22 08:58:16;;;;;;;11.85;5.70;;;;;;;30.84;33.98;99913.41;7764347;32;38977;-75
2022/07/22 09:02:37;;;;;;;23.45;5.97;;;;;;;31.18;32.43;99916.50;7764247;32;39015;-77
2022/07/22 09:06:54;;;;;;;11.95;5.40;;;;;;;31.48;33.23;99908.69;7764015;32;38068;-76
2022/07/22 09:11:21;;;;;;;12.07;5.28;;;;;;;31.71;32.02;99911.78;7764044;32;37006;-76
2022/07/22 09:15:51;;;;;;;11.60;5.30;;;;;;;31.94;31.70;99905.59;7750683;32;38108;-76
2022/07/22 09:20:18;;;;;;;14.43;5.20;;;;;;;32.45;30.15;99896.69;7764065;32;39926;-76
2022/07/22 09:24:41;;;;;;;8.15;4.57;;;;;;;32.67;30.33;99898.06;7763419;32;37891;-76
2022/07/22 09:28:58;;;;;;;8.90;4.93;;;;;;;32.57;29.33;99896.94;7749658;32;37671;-76
2022/07/22 09:33:18;;;;;;;8.70;4.47;;;;;;;33.06;28.28;99893.16;7763661;32;39332;-77
2022/07/22 09:37:35;;;;;;;10.68;4.87;;;;;;;33.18;27.67;99895.44;7749894;32;38817;-79
2022/07/22 09:42:03;;;;;;;11.82;4.72;;;;;;;33.59;26.94;99888.81;7763235;32;38684;-79
2022/07/22 09:46:37;;;;;;;11.68;4.50;;;;;;;33.85;27.12;99883.59;7763132;32;37087;-78
2022/07/22 09:50:56;;;;;;;8.98;4.65;;;;;;;33.30;26.78;99877.91;7766016;32;39188;-78
2022/07/22 09:55:15;;;;;;;16.45;5.30;;;;;;;33.35;27.34;99878.69;7766729;32;40618;-78
2022/07/22 09:59:31;;;;;;;16.52;4.43;;;;;;;34.23;25.99;99874.88;7766630;32;37771;-78
2022/07/22 10:03:48;;;;;;;8.52;4.82;;;;;;;34.43;24.96;99870.03;7766514;32;37715;-77
2022/07/22 10:08:06;;;;;;;13.65;4.35;;;;;;;34.74;25.02;99866.25;7752619;32;38975;-77
2022/07/22 10:12:22;;;;;;;11.85;4.93;;;;;;;34.70;24.67;99857.78;7766297;32;41025;-77
2022/07/22 10:16:39;;;;;;;10.65;4.60;;;;;;;34.85;23.75;99854.69;7766402;32;37662;-78
2022/07/22 10:21:02;;;;;;;13.32;4.85;;;;;;;35.14;24.53;99852.81;7766338;32;37823;-78
2022/07/22 10:25:20;;;;;;;9.40;4.87;;;;;;;34.86;24.19;99847.78;7766321;32;39862;-79
2022/07/22 10:29:44;;;;;;;11.90;5.03;;;;;;;35.55;24.68;99842.19;7752079;32;39707;-78
2022/07/22 10:34:02;;;;;;;10.90;4.78;;;;;;;35.26;25.13;99837.19;7766124;32;38019;-77
2022/07/22 10:38:21;;;;;;;7.87;4.80;;;;;;;35.04;25.30;99841.72;7752175;32;37101;-78
2022/07/22 10:43:07;;;;;;;10.00;4.53;;;;;;;35.91;23.72;99824.28;7765972;32;38187;-77
2022/07/22 10:47:53;;;;;;;10.65;4.90;;;;;;;35.90;23.46;99826.31;7765742;32;40059;-77
2022/07/22 10:52:16;;;;;;;14.60;5.22;;;;;;;36.51;22.16;99818.22;7764955;32;38748;-78
2022/07/22 10:56:38;;;;;;;12.37;4.90;;;;;;;36.26;23.26;99816.09;7765749;32;37059;-77
2022/07/22 11:00:55;;;;;;;16.33;5.28;;;;;;;36.36;22.84;99820.69;7765503;32;39057;-78
2022/07/22 11:05:11;;;;;;;11.20;5.28;;;;;;;36.99;22.45;99809.91;7765479;32;40709;-78
2022/07/22 11:09:34;;;;;;;10.05;5.05;;;;;;;36.70;22.60;99815.69;7765797;32;37833;-77
2022/07/22 11:13:51;;;;;;;8.02;4.70;;;;;;;37.07;21.62;99807.62;7765706;32;37033;-76
2022/07/22 11:18:07;;;;;;;10.13;4.45;;;;;;;36.65;21.92;99803.63;7765847;32;39237;-77
2022/07/22 11:22:23;;;;;;;9.10;4.80;;;;;;;37.24;21.38;99800.66;7765686;32;40810;-76
2022/07/22 11:26:49;;;;;;;18.12;4.82;;;;;;;36.80;21.87;99803.19;7751748;32;37873;-77
2022/07/22 11:31:06;;;;;;;7.85;4.93;;;;;;;37.37;21.46;99801.41;7765421;32;37819;-76
2022/07/22 11:35:23;;;;;;;11.25;4.95;;;;;;;38.02;20.54;99795.63;7765480;32;38969;-77
2022/07/22 11:39:39;;;;;;;27.52;6.03;;;;;;;37.16;21.17;99793.56;7765346;32;40037;-77
2022/07/22 11:43:55;;;;;;;11.00;4.45;;;;;;;37.94;19.63;99781.63;7765312;32;37843;-76
2022/07/22 11:48:12;;;;;;;8.18;4.72;;;;;;;38.29;19.12;99783.66;7765331;32;37223;-76
2022/07/22 11:52:28;;;;;;;9.88;4.78;;;;;;;37.19;20.08;99778.47;7765327;32;39752;-76
2022/07/22 11:56:44;;;;;;;10.93;4.65;;;;;;;37.89;19.44;99770.03;7765353;32;40676;-77
2022/07/22 12:01:01;;;;;;;9.85;3.87;;;;;;;37.59;19.90;99766.59;7765126;32;37633;-76
2022/07/22 12:05:17;;;;;;;11.60;3.72;;;;;;;37.71;19.19;99768.62;7765118;32;37758;-76
2022/07/22 12:09:49;;;;;;;8.65;4.28;;;;;;;38.14;18.17;99758.59;7753164;32;39240;-77
2022/07/22 12:14:22;;;;;;;15.20;4.25;;;;;;;38.25;17.72;99754.56;7764188;32;40691;-77
2022/07/22 12:18:40;;;;;;;9.57;4.37;;;;;;;38.08;17.93;99743.31;7764830;32;37936;-77
2022/07/22 12:22:56;;;;;;;10.35;4.10;;;;;;;38.41;18.37;99745.00;7764951;32;37790;-75
2022/07/22 12:27:17;;;;;;;10.60;4.12;;;;;;;38.09;17.89;99744.13;7751050;32;39255;-77
2022/07/22 12:31:42;;;;;;;8.65;3.70;;;;;;;38.67;17.20;99728.56;7764592;32;40840;-75
2022/07/22 12:36:04;;;;;;;10.02;4.10;;;;;;;38.19;18.22;99730.78;7764620;32;38719;-77
2022/07/22 12:40:22;;;;;;;9.05;3.45;;;;;;;37.82;17.99;99728.44;7770804;32;37853;-77
2022/07/22 12:44:38;;;;;;;9.45;3.85;;;;;;;38.27;16.84;99729.25;7774823;32;40036;-77
2022/07/22 12:48:59;;;;;;;6.78;3.87;;;;;;;38.33;17.84;99718.87;7771782;32;39971;-79
2022/07/22 12:53:16;;;;;;;;;;;;;;;38.59;17.47;99715.88;7786232;32;38466;-75
2022/07/22 12:57:33;;;;;;;9.75;3.67;;;;;;;38.93;16.67;99706.38;7788874;32;36799;-77
2022/07/22 13:01:49;;;;;;;6.07;3.47;;;;;;;39.76;15.82;99688.63;7782075;32;39352;-77
2022/07/22 13:06:06;;;;;;;8.85;3.47;;;;;;;39.69;15.46;99686.91;7782602;32;39989;-76
2022/07/22 13:10:25;;;;;;;9.75;3.80;;;;;;;39.02;15.23;99682.81;7785722;32;37962;-78
2022/07/22 13:14:42;;;;;;;8.23;3.75;;;;;;;39.33;15.20;99676.25;7765000;32;36925;-77
2022/07/22 13:18:58;;;;;;;7.43;3.62;;;;;;;40.41;14.46;99674.28;7774765;32;38903;-77
2022/07/22 13:23:15;;;;;;;9.02;3.55;;;;;;;40.08;15.09;99672.13;7771887;32;40649;-77
2022/07/22 13:27:31;;;;;;;9.30;4.10;;;;;;;38.79;15.81;99679.25;7775344;32;38462;-79
2022/07/22 13:31:49;;;;;;;8.70;3.60;;;;;;;39.16;15.69;99670.81;7779710;32;36914;-77
2022/07/22 13:36:28;;;;;;;9.38;3.25;;;;;;;40.33;14.92;99656.69;7783272;32;39314;-77
2022/07/22 13:40:51;;;;;;;10.35;3.92;;;;;;;40.46;14.38;99656.50;7779183;32;39958;-76
2022/07/22 13:45:09;;;;;;;7.25;3.47;;;;;;;40.18;15.18;99654.50;7764557;32;38783;-76
2022/07/22 13:49:26;;;;;;;28.30;3.83;;;;;;;40.66;14.72;99648.16;7753593;32;36827;-77
2022/07/22 13:53:47;;;;;;;7.00;3.28;;;;;;;40.16;15.49;99659.13;7766050;32;39257;-78
2022/07/22 13:58:03;;;;;;;6.35;3.17;;;;;;;40.46;14.57;99645.06;7774283;32;39890;-77
2022/07/22 14:02:20;;;;;;;6.18;3.42;;;;;;;40.65;14.30;99646.56;7766758;32;36019;-77
2022/07/22 14:06:36;;;;;;;5.15;3.60;;;;;;;40.67;13.99;99631.81;7783808;32;37152;-77
2022/07/22 14:10:53;;;;;;;6.82;3.40;;;;;;;41.46;13.94;99634.31;7777642;32;39319;-76
2022/07/22 14:15:10;;;;;;;11.10;3.50;;;;;;;41.10;13.72;99639.06;7777460;32;39949;-77
2022/07/22 14:19:26;;;;;;;7.75;3.30;;;;;;;40.65;14.34;99634.34;7778577;32;37684;-77
2022/07/22 14:23:42;;;;;;;6.20;3.12;;;;;;;41.23;13.57;99624.50;7792413;32;37418;-78
2022/07/22 14:27:58;;;;;;;7.00;2.92;;;;;;;41.26;13.63;99625.63;7791475;32;39252;-76
2022/07/22 14:32:35;;;;;;;10.30;3.25;;;;;;;40.54;14.13;99632.03;7765359;32;40303;-78
2022/07/22 14:36:51;;;;;;;6.07;3.05;;;;;;;40.03;13.57;99619.34;7764579;32;38708;-77
2022/07/22 14:41:08;;;;;;;6.90;3.05;;;;;;;40.87;13.25;99612.03;7765366;32;37028;-77
2022/07/22 14:45:25;;;;;;;7.43;3.60;;;;;;;41.48;13.01;99619.53;7778147;32;39001;-78
2022/07/22 14:49:41;;;;;;;15.55;3.47;;;;;;;41.47;12.59;99612.25;7772879;32;40713;-78
2022/07/22 14:53:57;;;;;;;8.00;2.95;;;;;;;41.18;12.98;99607.22;7765460;32;37946;-77
2022/07/22 14:58:14;;;;;;;7.95;3.05;;;;;;;41.07;12.46;99611.44;7789509;32;37779;-76
2022/07/22 15:02:30;;;;;;;9.52;3.85;;;;;;;41.34;12.49;99608.88;7775890;32;39318;-77
2022/07/22 15:06:46;;;;;;;6.25;3.17;;;;;;;41.58;12.52;99611.69;7751703;32;40549;-77
2022/07/22 15:11:03;;;;;;;6.15;3.00;;;;;;;40.51;13.95;99613.00;7771563;32;38454;-77
2022/07/22 15:15:19;;;;;;;6.47;3.30;;;;;;;40.38;13.38;99616.09;7791688;32;37124;-76
2022/07/22 15:19:35;;;;;;;9.52;3.47;;;;;;;40.14;12.88;99613.13;7771269;32;39428;-78
2022/07/22 15:23:51;;;;;;;8.65;2.65;;;;;;;40.44;12.98;99607.66;7781036;32;39837;-75
2022/07/22 15:28:07;;;;;;;7.55;3.20;;;;;;;39.57;13.70;99608.00;7791780;32;39139;-77
2022/07/22 15:32:43;;;;;;;9.20;3.15;;;;;;;40.10;13.83;99606.78;7791284;32;37151;-77
2022/07/22 15:36:59;;;;;;;9.85;3.12;;;;;;;39.60;14.40;99598.47;7792446;32;40008;-76
2022/07/22 15:41:16;;;;;;;5.75;3.33;;;;;;;39.54;14.09;99601.16;7776142;32;39856;-78
2022/07/22 15:45:34;;;;;;;11.75;3.30;;;;;;;39.98;13.86;99597.97;7755860;32;38627;-76
2022/07/22 15:49:50;;;;;;;12.02;3.40;;;;;;;40.03;13.78;99595.72;7785127;32;36289;-75
2022/07/22 15:54:09;;;;;;;12.18;3.75;;;;;;;39.72;14.21;99593.84;7791721;32;40434;-76
2022/07/22 16:03:20;;;;;;;9.25;3.47;;;;;;;39.71;15.05;99586.59;7769627;32;39342;-77
2022/07/22 16:07:42;;;;;;;6.87;3.30;;;;;;;39.87;15.03;99583.38;7785695;32;37052;-78
2022/07/22 16:11:59;;;;;;;12.68;4.03;;;;;;;39.76;14.79;99580.25;7785743;32;40453;-77
2022/07/22 16:16:15;;;;;;;4.97;3.12;;;;;;;39.87;14.82;99577.66;7784206;32;40750;-77
2022/07/22 16:20:31;;;;;;;7.10;3.25;;;;;;;39.76;15.21;99588.78;7768645;32;38779;-78
2022/07/22 16:24:48;;;;;;;7.75;3.22;;;;;;;39.35;16.02;99588.19;7773112;32;37722;-79
2022/07/22 16:29:04;;;;;;;9.23;3.25;;;;;;;39.36;16.12;99586.88;7785045;32;39261;-79
2022/07/22 16:33:20;;;;;;;5.97;3.37;;;;;;;39.39;16.19;99588.78;7768887;32;39658;-78
2022/07/22 16:37:36;;;;;;;8.13;3.35;;;;;;;39.05;16.49;99593.53;7763888;32;37642;-77
2022/07/22 16:41:52;;;;;;;7.75;3.55;;;;;;;38.46;16.72;99584.97;7764477;32;37466;-78
2022/07/22 16:46:08;;;;;;;6.85;3.62;;;;;;;38.77;16.36;99589.81;7779801;32;38276;-79
2022/07/22 16:50:27;;;;;;;15.82;3.60;;;;;;;38.55;16.85;99581.34;7753246;32;40908;-78
2022/07/22 16:54:44;;;;;;;8.57;3.92;;;;;;;38.48;17.20;99588.13;7781999;32;37988;-76
2022/07/22 16:59:00;;;;;;;7.28;3.45;;;;;;;38.39;17.27;99588.87;7772113;32;36946;-78
2022/07/22 17:03:17;;;;;;;7.57;3.80;;;;;;;38.19;17.63;99591.31;7775889;32;39384;-79
2022/07/22 17:07:38;;;;;;;12.18;3.70;;;;;;;38.02;18.02;99596.44;7777448;32;40079;-79
2022/07/22 17:11:54;;;;;;;16.73;3.90;;;;;;;38.12;17.76;99593.22;7770284;32;38082;-78
2022/07/22 17:16:11;;;;;;;5.97;3.35;;;;;;;38.14;17.63;99601.28;7774737;32;37445;-78
2022/07/22 17:20:28;;;;;;;15.38;4.07;;;;;;;37.54;18.37;99599.44;7782428;32;39226;-78
2022/07/22 17:24:44;;;;;;;5.68;3.60;;;;;;;37.14;18.81;99606.50;7778794;32;40500;-78
2022/07/22 17:29:01;;;;;;;7.37;4.00;;;;;;;37.31;19.06;99595.78;7775729;32;37954;-77
2022/07/22 17:33:17;;;;;;;7.95;4.45;;;;;;;37.34;19.21;99597.69;7777834;32;36830;-78
2022/07/22 17:37:39;;;;;;;16.40;5.40;;;;;;;37.56;19.00;99597.69;7776814;32;40063;-79
2022/07/22 17:41:56;;;;;;;16.83;5.07;;;;;;;37.54;19.39;99599.44;7762623;32;41039;-78
2022/07/22 17:46:12;;;;;;;17.08;6.30;;;;;;;37.51;19.61;99606.81;7761700;32;37936;-76
2022/07/22 17:50:28;;;;;;;15.82;4.25;;;;;;;37.45;19.99;99610.75;7762651;32;36638;-78
2022/07/22 17:54:44;;;;;;;10.25;4.62;;;;;;;37.56;19.46;99613.97;7762437;32;39767;-75
2022/07/22 17:59:01;;;;;;;10.55;3.75;;;;;;;37.43;20.49;99610.38;7774021;32;40501;-76
2022/07/22 18:03:19;;;;;;;9.65;4.07;;;;;;;37.33;19.86;99607.47;7789696;32;38572;-76
2022/07/22 18:07:41;;;;;;;11.40;4.07;;;;;;;37.20;20.53;99610.38;7769618;32;220289;-75
2022/07/22 18:11:57;;;;;;;9.85;4.10;;;;;;;36.96;21.35;99609.12;7765548;32;39920;-76
2022/07/22 18:16:15;;;;;;;8.25;3.72;;;;;;;36.59;22.06;99620.87;7766202;32;40741;-74
2022/07/22 18:20:32;;;;;;;12.25;4.10;;;;;;;36.33;22.44;99617.25;7766253;32;37286;-75
2022/07/22 18:24:48;;;;;;;12.52;4.95;;;;;;;36.09;21.93;99622.41;7792351;32;37100;-75
2022/07/22 18:29:04;;;;;;;12.88;4.62;;;;;;;35.94;22.06;99629.75;7793205;32;39752;-75
2022/07/22 18:33:20;;;;;;;16.42;5.15;;;;;;;35.80;22.61;99636.63;7792952;32;39719;-74
2022/07/22 18:37:47;;;;;;;19.45;5.97;;;;;;;35.42;23.37;99632.38;7793138;32;38673;-75
2022/07/22 18:42:04;;;;;;;12.35;5.32;;;;;;;35.24;23.53;99634.87;7793005;32;36986;-75
2022/07/22 18:46:20;;;;;;;16.48;5.80;;;;;;;34.99;23.62;99636.31;7792617;32;40047;-74
2022/07/22 18:50:36;;;;;;;18.23;4.80;;;;;;;34.74;23.73;99631.28;7780044;32;39940;-76
2022/07/22 18:54:52;;;;;;;11.88;4.45;;;;;;;34.53;23.62;99643.84;7769185;32;37981;-74
2022/07/22 18:59:08;;;;;;;8.70;4.00;;;;;;;34.35;23.38;99642.22;7766610;32;36684;-75
2022/07/22 19:03:24;;;;;;;8.10;4.10;;;;;;;34.22;23.29;99646.97;7774327;32;39045;-75
2022/07/22 19:07:42;;;;;;;12.00;3.90;;;;;;;34.11;23.42;99652.03;7737592;32;38883;-76
2022/07/22 19:11:59;;;;;;;8.10;3.85;;;;;;;33.90;23.69;99654.06;7738686;32;37967;-75
2022/07/22 19:16:15;;;;;;;13.20;6.55;;;;;;;33.91;23.56;99661.34;7745104;32;37018;-74
2022/07/22 19:20:31;;;;;;;19.10;9.88;;;;;;;33.84;23.74;99664.28;7765358;32;40876;-75
2022/07/22 19:24:48;;;;;;;14.02;8.05;;;;;;;33.68;24.34;99670.66;7765509;32;40125;-75
2022/07/22 19:29:04;;;;;;;13.10;5.45;;;;;;;33.48;24.70;99681.91;7765227;32;38731;-76
2022/07/22 19:33:20;;;;;;;15.80;6.05;;;;;;;33.39;25.27;99678.84;7765135;32;38061;-75
2022/07/22 19:37:36;;;;;;;15.88;6.78;;;;;;;33.18;26.03;99682.84;7765534;32;39280;-75
2022/07/22 19:41:53;;;;;;;16.20;7.90;;;;;;;33.02;26.40;99669.38;7765302;32;40067;-75
2022/07/22 19:46:09;;;;;;;11.05;6.72;;;;;;;33.05;26.30;99676.97;7765279;32;38115;-78
2022/07/22 19:50:25;;;;;;;15.13;6.57;;;;;;;32.89;26.83;99683.25;7752790;32;36927;-76
2022/07/22 19:54:43;;;;;;;12.00;5.18;;;;;;;32.71;27.16;99683.56;7749726;32;39955;-74
2022/07/22 19:58:59;;;;;;;9.75;4.87;;;;;;;32.47;27.75;99674.19;7763261;32;40802;-76
2022/07/22 20:03:16;;;;;;;8.40;4.75;;;;;;;32.47;27.90;99691.13;7761471;32;37854;-76
2022/07/22 20:07:32;;;;;;;11.70;4.45;;;;;;;32.21;28.61;99687.03;7772832;32;37807;-76
2022/07/22 20:11:48;;;;;;;9.80;3.50;;;;;;;32.10;27.85;99687.97;7786050;32;39321;-77